Time;durP1;ratioP1;P1;durP2;ratioP2;P2;SDS_P1;SDS_P2;PMS_P1;PMS_P2;Temp;Humidity;BMP_temperature;BMP_pressure;BME280_temperature;BME280_humidity;BME280_pressure;Samples;Min_cycle;Max_cycle;Signal;HPM_P1;HPM_P2
2020/12/15 00:02:22;;;;;;;8.95;5.38;;;;;;;2.67;84.26;98605.66;5054445;28;20049;-78
2020/12/15 00:04:49;;;;;;;10.75;5.32;;;;;;;2.57;84.84;98603.00;5052216;28;20053;-78
2020/12/15 00:07:15;;;;;;;9.65;5.72;;;;;;;2.62;85.04;98606.94;5052323;28;20056;-78
2020/12/15 00:09:42;;;;;;;12.13;5.72;;;;;;;2.62;85.06;98616.81;5052058;28;20045;-78
2020/12/15 00:12:08;;;;;;;11.75;6.72;;;;;;;2.70;85.62;98616.09;5053989;28;20045;-78
2020/12/15 00:14:34;;;;;;;10.20;5.78;;;;;;;2.57;85.55;98606.50;5064170;28;20052;-78
2020/12/15 00:17:00;;;;;;;12.07;5.70;;;;;;;2.46;85.31;98607.53;5051585;28;20044;-78
2020/12/15 00:19:27;;;;;;;8.77;5.28;;;;;;;2.54;85.59;98609.50;5052208;28;20489;-78
2020/12/15 00:21:55;;;;;;;10.65;6.53;;;;;;;2.66;85.36;98618.22;5051929;28;20052;-78
2020/12/15 00:24:21;;;;;;;11.23;5.97;;;;;;;2.55;85.49;98600.47;5051638;28;20049;-78
2020/12/15 00:26:47;;;;;;;8.02;5.70;;;;;;;2.69;85.38;98630.50;5051861;28;20103;-78
2020/12/15 00:29:14;;;;;;;10.00;5.60;;;;;;;2.44;85.66;98631.00;5051586;28;20898;-78
2020/12/15 00:31:40;;;;;;;11.85;5.60;;;;;;;2.46;86.26;98639.75;5051576;28;20506;-78
2020/12/15 00:34:06;;;;;;;12.75;6.90;;;;;;;2.60;85.59;98629.53;5051781;28;20382;-78
2020/12/15 00:36:33;;;;;;;9.25;5.82;;;;;;;2.62;85.43;98643.63;5051349;28;20489;-78
2020/12/15 00:39:00;;;;;;;14.07;6.18;;;;;;;2.54;85.61;98635.50;5051879;28;20040;-78
2020/12/15 00:41:27;;;;;;;11.05;5.40;;;;;;;2.44;85.87;98630.16;5051490;28;20045;-78
2020/12/15 00:43:53;;;;;;;11.85;5.13;;;;;;;2.60;85.14;98629.53;5052063;28;20106;-78
2020/12/15 00:46:20;;;;;;;11.80;5.47;;;;;;;2.67;84.60;98640.53;5051468;28;20041;-78
2020/12/15 00:48:47;;;;;;;12.52;4.60;;;;;;;2.51;86.13;98639.31;5051219;28;20045;-78
2020/12/15 00:51:15;;;;;;;8.68;4.70;;;;;;;2.49;85.82;98643.97;5050900;28;20071;-78
2020/12/15 00:53:41;;;;;;;9.88;5.28;;;;;;;2.35;86.22;98622.97;5051369;28;20128;-78
2020/12/15 00:56:08;;;;;;;12.60;5.82;;;;;;;2.55;85.59;98627.28;5051051;28;20052;-79
2020/12/15 00:58:36;;;;;;;8.55;5.30;;;;;;;2.51;85.20;98625.88;5051415;28;20103;-78
2020/12/15 01:01:04;;;;;;;10.77;5.95;;;;;;;2.44;85.33;98616.75;5050961;28;20044;-78
2020/12/15 01:03:31;;;;;;;8.52;4.65;;;;;;;2.68;85.32;98636.84;5051372;28;20128;-78
2020/12/15 01:05:57;;;;;;;10.07;4.85;;;;;;;2.64;85.36;98639.00;5050860;28;20055;-78
2020/12/15 01:08:23;;;;;;;9.70;5.47;;;;;;;2.54;85.84;98628.28;5050723;28;20037;-77
2020/12/15 01:10:50;;;;;;;11.50;5.45;;;;;;;2.46;85.76;98626.31;5051082;28;20057;-79
2020/12/15 01:13:17;;;;;;;9.05;5.35;;;;;;;2.62;85.79;98638.28;5050801;28;20098;-78
2020/12/15 01:15:43;;;;;;;10.65;5.47;;;;;;;2.55;85.83;98629.97;5050920;28;20398;-78
2020/12/15 01:18:10;;;;;;;8.55;4.90;;;;;;;2.58;85.77;98632.38;5050870;28;20444;-78
2020/12/15 01:20:37;;;;;;;7.88;4.97;;;;;;;2.60;86.03;98637.59;5051535;28;20523;-78
2020/12/15 01:23:03;;;;;;;9.82;5.15;;;;;;;2.58;86.17;98631.53;5051581;28;20049;-78
2020/12/15 01:25:29;;;;;;;10.88;4.95;;;;;;;2.52;86.08;98627.59;5050704;28;20166;-78
2020/12/15 01:27:55;;;;;;;7.82;4.82;;;;;;;2.53;86.08;98623.06;5051552;28;20052;-78
2020/12/15 01:30:22;;;;;;;10.85;5.18;;;;;;;2.55;85.86;98626.47;5050828;28;20102;-78
2020/12/15 01:32:49;;;;;;;9.93;5.20;;;;;;;2.47;86.32;98616.47;5051452;28;20079;-78
2020/12/15 01:35:18;;;;;;;12.95;4.90;;;;;;;2.57;86.16;98640.56;5050640;28;20188;-78
2020/12/15 01:37:44;;;;;;;9.17;5.00;;;;;;;2.51;86.30;98628.56;5051804;28;20391;-78
2020/12/15 01:40:11;;;;;;;7.75;3.75;;;;;;;2.55;86.29;98624.59;5051050;28;20318;-78
2020/12/15 01:42:37;;;;;;;5.53;3.35;;;;;;;2.74;86.38;98641.63;5051213;28;20056;-78
2020/12/15 01:45:04;;;;;;;6.60;4.00;;;;;;;2.63;86.42;98623.88;5050774;28;20094;-78
2020/12/15 01:47:31;;;;;;;9.52;3.95;;;;;;;2.67;86.45;98617.22;5051060;28;20048;-78
2020/12/15 01:49:58;;;;;;;10.80;3.97;;;;;;;2.61;86.41;98628.56;5050901;28;20071;-78
2020/12/15 01:52:27;;;;;;;10.32;4.40;;;;;;;2.70;86.29;98641.09;5051348;28;20088;-78
2020/12/15 01:54:54;;;;;;;10.07;4.88;;;;;;;2.60;86.38;98627.69;5051025;28;20253;-78
2020/12/15 01:57:20;;;;;;;6.53;4.18;;;;;;;2.73;86.58;98642.63;5051391;28;20041;-78
2020/12/15 01:59:46;;;;;;;9.27;4.55;;;;;;;2.55;86.64;98623.78;5051227;28;20106;-78
2020/12/15 02:02:13;;;;;;;8.55;4.40;;;;;;;2.75;86.77;98632.59;5050694;28;20048;-78
2020/12/15 02:04:40;;;;;;;8.07;5.03;;;;;;;2.61;86.26;98623.19;5050254;28;20049;-78
2020/12/15 02:07:06;;;;;;;9.90;5.32;;;;;;;2.75;86.40;98632.59;5050813;28;20451;-78
2020/12/15 02:09:33;;;;;;;7.78;4.82;;;;;;;2.74;86.46;98623.69;5049933;28;20045;-78
2020/12/15 02:11:59;;;;;;;8.75;5.10;;;;;;;2.83;85.85;98640.72;5052933;28;20057;-78
2020/12/15 02:14:26;;;;;;;8.40;4.35;;;;;;;2.73;86.64;98646.16;5054029;28;20098;-78
2020/12/15 02:16:53;;;;;;;8.23;4.60;;;;;;;2.72;86.73;98655.19;5054402;28;20103;-79
2020/12/15 02:19:19;;;;;;;10.20;5.63;;;;;;;2.70;86.55;98638.41;5054375;28;21756;-79
2020/12/15 02:21:54;;;;;;;10.13;5.93;;;;;;;2.78;86.16;98634.97;5054567;28;20068;-79
2020/12/15 02:24:20;;;;;;;12.25;5.00;;;;;;;2.82;85.54;98623.78;5053867;28;20099;-79
2020/12/15 02:26:47;;;;;;;8.30;4.90;;;;;;;2.91;85.94;98627.41;5053910;28;20099;-79
2020/12/15 02:29:14;;;;;;;12.27;4.35;;;;;;;2.68;86.11;98607.31;5054167;28;20462;-79
2020/12/15 02:31:40;;;;;;;8.10;4.63;;;;;;;2.72;87.02;98631.03;5053876;28;20053;-78
2020/12/15 02:34:06;;;;;;;8.38;4.28;;;;;;;2.54;86.87;98612.19;5053792;28;20048;-78
2020/12/15 02:36:32;;;;;;;6.82;3.97;;;;;;;2.58;86.84;98624.31;5054343;28;20049;-78
2020/12/15 02:39:05;;;;;;;7.13;3.70;;;;;;;2.71;87.04;98625.81;5054149;28;20040;-77
2020/12/15 02:41:32;;;;;;;8.35;4.43;;;;;;;2.69;86.78;98644.75;5053415;28;20044;-78
2020/12/15 02:43:58;;;;;;;10.35;4.85;;;;;;;2.64;87.38;98625.56;5054200;28;20057;-78
2020/12/15 02:46:24;;;;;;;11.38;4.88;;;;;;;2.70;86.99;98642.94;5053623;28;20048;-79
2020/12/15 02:48:51;;;;;;;8.18;5.03;;;;;;;2.60;87.08;98640.25;5053910;28;20101;-78
2020/12/15 02:51:17;;;;;;;10.30;5.47;;;;;;;2.68;86.95;98636.84;5054336;28;20049;-79
2020/12/15 02:53:43;;;;;;;8.43;5.32;;;;;;;2.75;87.06;98648.69;5053344;28;20053;-78
2020/12/15 02:56:17;;;;;;;9.63;5.50;;;;;;;2.60;87.10;98605.38;5053867;28;20053;-78
2020/12/15 02:58:43;;;;;;;9.85;5.95;;;;;;;2.78;86.25;98608.97;5052599;28;20076;-79
2020/12/15 03:01:09;;;;;;;10.07;5.78;;;;;;;2.82;86.54;98618.41;5053667;28;20053;-78
2020/12/15 03:03:36;;;;;;;15.02;5.97;;;;;;;2.69;86.80;98600.97;5053243;28;20464;-78
2020/12/15 03:06:02;;;;;;;9.23;5.07;;;;;;;2.91;86.67;98614.00;5053507;28;20099;-78
2020/12/15 03:08:28;;;;;;;11.05;5.28;;;;;;;2.72;87.08;98593.44;5053732;28;20099;-78
2020/12/15 03:10:54;;;;;;;8.10;4.68;;;;;;;2.80;87.25;98600.75;5053017;28;20053;-78
2020/12/15 03:13:21;;;;;;;9.27;5.20;;;;;;;2.64;87.05;98588.84;5053663;28;20056;-78
2020/12/15 03:15:48;;;;;;;8.57;4.97;;;;;;;2.77;86.67;98604.59;5052257;28;20444;-78
2020/12/15 03:18:14;;;;;;;8.80;4.75;;;;;;;2.73;86.46;98607.75;5053050;28;20057;-78
2020/12/15 03:20:46;;;;;;;9.00;5.10;;;;;;;2.65;86.88;98603.13;5052539;28;20182;-78
2020/12/15 03:23:12;;;;;;;7.75;4.88;;;;;;;2.77;86.50;98598.38;5052949;28;20118;-78
2020/12/15 03:25:39;;;;;;;6.30;4.05;;;;;;;3.00;85.70;98593.47;5052444;28;20041;-78
2020/12/15 03:28:05;;;;;;;9.07;5.10;;;;;;;2.95;85.95;98583.16;5053574;28;20106;-78
2020/12/15 03:30:33;;;;;;;7.57;5.35;;;;;;;2.99;86.48;98562.22;5052328;28;20075;-78
2020/12/15 03:32:59;;;;;;;8.35;5.03;;;;;;;3.12;85.91;98537.69;5052678;28;20571;-78
2020/12/15 03:35:27;;;;;;;10.23;5.38;;;;;;;3.11;86.36;98538.69;5052605;28;20053;-78
2020/12/15 03:37:55;;;;;;;10.38;5.32;;;;;;;3.01;86.64;98557.53;5052618;28;20053;-78
2020/12/15 03:40:21;;;;;;;10.20;5.45;;;;;;;3.00;87.19;98590.78;5052851;28;20072;-78
2020/12/15 03:42:47;;;;;;;6.82;4.22;;;;;;;2.95;87.29;98611.84;5052663;28;20048;-78
2020/12/15 03:45:14;;;;;;;5.82;3.15;;;;;;;3.12;86.70;98578.81;5052528;28;20052;-78
2020/12/15 03:47:41;;;;;;;5.07;2.53;;;;;;;3.19;84.82;98563.78;5052549;28;20516;-78
2020/12/15 03:50:09;;;;;;;6.10;3.25;;;;;;;3.25;84.29;98580.28;5053006;28;20469;-78
2020/12/15 03:52:36;;;;;;;7.47;3.92;;;;;;;3.35;84.32;98599.88;5052826;28;20053;-79
2020/12/15 03:55:03;;;;;;;4.82;2.75;;;;;;;3.51;83.25;98585.75;5052248;28;20110;-79
2020/12/15 03:57:29;;;;;;;6.45;3.42;;;;;;;3.66;81.59;98564.56;5052419;28;20110;-78
2020/12/15 03:59:55;;;;;;;6.40;2.85;;;;;;;3.66;80.81;98561.88;5051610;28;20505;-78
2020/12/15 04:02:21;;;;;;;6.50;2.80;;;;;;;3.62;80.91;98518.31;5052676;28;20056;-79
2020/12/15 04:04:48;;;;;;;3.97;2.50;;;;;;;3.92;79.78;98526.91;5051514;28;20053;-78
2020/12/15 04:07:15;;;;;;;4.68;2.30;;;;;;;3.97;79.24;98515.69;5052563;28;20490;-78
2020/12/15 04:09:41;;;;;;;3.88;2.30;;;;;;;4.17;77.84;98522.53;5051555;28;20103;-78
2020/12/15 04:12:07;;;;;;;3.50;2.30;;;;;;;4.21;78.48;98529.25;5052102;28;20075;-79
2020/12/15 04:14:33;;;;;;;3.13;2.00;;;;;;;4.18;78.57;98529.59;5051778;28;20045;-78
2020/12/15 04:16:59;;;;;;;4.32;2.03;;;;;;;4.17;79.05;98544.06;5051297;28;20052;-78
2020/12/15 04:19:26;;;;;;;3.83;2.40;;;;;;;4.06;77.98;98541.63;5052018;28;20555;-78
2020/12/15 04:21:53;;;;;;;2.90;2.13;;;;;;;4.19;78.91;98571.63;5052036;28;20061;-79
2020/12/15 04:24:19;;;;;;;9.75;4.57;;;;;;;4.06;81.00;98582.84;5047298;28;20450;-78
2020/12/15 04:26:45;;;;;;;6.13;2.80;;;;;;;3.99;80.90;98607.81;5052114;28;20102;-78
2020/12/15 04:29:11;;;;;;;5.53;2.97;;;;;;;3.82;81.90;98614.91;5051623;28;20049;-78
2020/12/15 04:31:38;;;;;;;6.93;3.92;;;;;;;3.71;82.87;98629.44;5051083;28;20451;-78
2020/12/15 04:34:04;;;;;;;7.32;3.88;;;;;;;3.62;84.05;98625.00;5051218;28;20106;-78
2020/12/15 04:36:30;;;;;;;5.60;3.65;;;;;;;3.71;84.29;98619.50;5051286;28;20049;-78
2020/12/15 04:38:57;;;;;;;6.95;3.85;;;;;;;3.73;84.21;98600.53;5052110;28;20045;-78
2020/12/15 04:41:24;;;;;;;7.57;4.22;;;;;;;3.84;83.68;98597.63;5051415;28;20048;-78
2020/12/15 04:43:50;;;;;;;10.50;3.65;;;;;;;3.82;83.16;98604.97;5051788;28;20392;-78
2020/12/15 04:46:21;;;;;;;7.57;3.53;;;;;;;3.85;83.26;98596.63;5051478;28;20048;-78
2020/12/15 04:48:49;;;;;;;;;;;;;;;3.76;83.85;98594.03;5051765;28;20098;-78
2020/12/15 04:51:20;;;;;;;7.30;3.47;;;;;;;3.64;83.61;98569.22;5051211;28;20380;-78
2020/12/15 04:53:48;;;;;;;6.65;3.30;;;;;;;3.63;84.01;98589.88;5051285;28;20056;-78
2020/12/15 04:56:26;;;;;;;6.97;4.60;;;;;;;3.63;84.34;98591.72;5050901;28;20425;-78
2020/12/15 04:58:56;;;;;;;5.30;3.58;;;;;;;3.59;84.66;98610.00;5051573;28;20145;-78
2020/12/15 05:01:23;;;;;;;6.55;4.22;;;;;;;3.57;84.96;98625.44;5051627;28;20053;-80
2020/12/15 05:03:51;;;;;;;9.48;4.65;;;;;;;3.57;85.05;98638.03;5051304;28;20064;-79
2020/12/15 05:06:22;;;;;;;9.50;5.40;;;;;;;3.53;85.48;98640.19;5051261;28;20110;-78
2020/12/15 05:08:48;;;;;;;15.02;7.57;;;;;;;3.40;85.64;98629.78;5053063;28;20055;-79
2020/12/15 05:11:14;;;;;;;17.83;7.90;;;;;;;3.42;85.68;98625.13;5053635;28;20049;-79
2020/12/15 05:13:42;;;;;;;16.08;7.78;;;;;;;3.47;85.38;98641.63;5052394;28;20049;-79
2020/12/15 05:16:08;;;;;;;21.83;10.00;;;;;;;3.43;85.50;98640.25;5050388;28;20095;-79
2020/12/15 05:18:34;;;;;;;16.85;8.43;;;;;;;3.54;85.58;98636.50;5050966;28;20049;-79
2020/12/15 05:21:12;;;;;;;7.47;4.50;;;;;;;3.57;85.53;98614.69;5051524;28;20075;-79
2020/12/15 05:23:44;;;;;;;7.82;4.35;;;;;;;3.45;85.66;98619.47;5051171;28;20052;-79
2020/12/15 05:26:10;;;;;;;8.63;4.47;;;;;;;3.47;86.31;98628.19;5051225;28;20512;-79
2020/12/15 05:28:37;;;;;;;8.00;4.50;;;;;;;3.52;85.67;98628.59;5050823;28;20040;-79
2020/12/15 05:31:04;;;;;;;6.95;3.83;;;;;;;3.53;85.23;98619.53;5051007;28;20045;-79
2020/12/15 05:33:30;;;;;;;5.60;3.40;;;;;;;3.57;84.89;98605.78;5050848;28;20067;-79
2020/12/15 05:35:56;;;;;;;7.13;3.60;;;;;;;3.61;84.62;98601.78;5050793;28;20049;-79
2020/12/15 05:38:23;;;;;;;5.35;3.55;;;;;;;3.77;83.88;98609.16;5050730;28;20041;-79
2020/12/15 05:40:49;;;;;;;5.80;3.70;;;;;;;3.69;83.47;98580.38;5051085;28;20111;-79
2020/12/15 05:43:25;;;;;;;6.45;3.63;;;;;;;3.80;82.99;98598.94;5050881;28;20053;-79
2020/12/15 05:45:52;;;;;;;6.25;3.25;;;;;;;3.83;82.42;98593.25;5051146;28;20473;-79
2020/12/15 05:48:26;;;;;;;3.42;2.70;;;;;;;3.93;81.96;98595.84;5047965;28;20055;-79
2020/12/15 05:50:56;;;;;;;5.53;2.97;;;;;;;3.71;82.84;98578.34;5054565;28;20049;-79
2020/12/15 05:53:23;;;;;;;4.63;3.20;;;;;;;3.84;82.91;98602.13;5054728;28;20048;-79
2020/12/15 05:55:49;;;;;;;4.63;2.72;;;;;;;3.83;82.75;98589.72;5054296;28;20048;-80
2020/12/15 05:58:16;;;;;;;5.95;3.40;;;;;;;3.72;81.76;98572.81;5054851;28;20143;-79
2020/12/15 06:00:42;;;;;;;4.35;3.13;;;;;;;3.88;81.51;98579.31;5054387;28;20060;-79
2020/12/15 06:03:09;;;;;;;6.30;3.72;;;;;;;4.04;80.95;98600.13;5054385;28;20520;-79
2020/12/15 06:05:40;;;;;;;7.43;3.30;;;;;;;4.02;80.49;98596.72;5053416;28;20509;-80
2020/12/15 06:08:07;;;;;;;8.10;3.47;;;;;;;3.89;80.31;98571.09;5052260;28;20099;-79
2020/12/15 06:10:34;;;;;;;4.47;2.60;;;;;;;4.11;79.93;98600.31;5054951;28;20118;-79
2020/12/15 06:13:02;;;;;;;4.18;2.83;;;;;;;4.01;81.34;98608.50;5053824;28;20073;-79
2020/12/15 06:15:30;;;;;;;5.93;2.72;;;;;;;3.96;81.79;98613.50;5053778;28;20049;-79
2020/12/15 06:17:58;;;;;;;5.40;3.25;;;;;;;3.83;82.49;98612.06;5053797;28;20053;-79
2020/12/15 06:20:32;;;;;;;6.97;2.80;;;;;;;3.79;82.80;98605.28;5054295;28;20056;-79
2020/12/15 06:23:00;;;;;;;4.32;2.60;;;;;;;3.95;82.20;98612.66;5053605;28;20045;-79
2020/12/15 06:25:32;;;;;;;3.83;2.70;;;;;;;4.12;81.28;98612.78;5057306;28;20091;-79
2020/12/15 06:28:04;;;;;;;3.72;2.88;;;;;;;3.96;81.44;98583.91;5053711;28;20493;-79
2020/12/15 06:30:33;;;;;;;5.35;2.65;;;;;;;4.12;81.61;98604.72;5054006;28;20056;-79
2020/12/15 06:33:00;;;;;;;3.70;2.67;;;;;;;3.95;82.29;98598.38;5054412;28;20506;-80
2020/12/15 06:35:27;;;;;;;4.38;2.58;;;;;;;4.02;80.75;98588.66;5055739;28;20378;-81
2020/12/15 06:37:53;;;;;;;4.30;2.40;;;;;;;4.00;80.07;98596.06;5054998;28;20057;-78
2020/12/15 06:40:20;;;;;;;4.25;2.40;;;;;;;4.11;80.62;98616.47;5052444;28;20048;-79
2020/12/15 06:42:51;;;;;;;5.78;2.95;;;;;;;4.07;81.30;98607.88;5051518;28;20049;-79
2020/12/15 06:45:22;;;;;;;4.80;3.10;;;;;;;4.02;81.83;98604.81;5053248;28;20047;-79
2020/12/15 06:47:57;;;;;;;3.15;2.40;;;;;;;3.97;81.47;98607.13;5053734;28;20131;-78
2020/12/15 06:50:24;;;;;;;6.47;2.80;;;;;;;3.99;82.46;98618.56;5049814;28;20044;-79
2020/12/15 06:52:50;;;;;;;6.93;3.22;;;;;;;3.92;82.75;98606.75;5042629;28;20060;-79
2020/12/15 06:55:29;;;;;;;4.55;3.10;;;;;;;3.84;83.36;98602.13;5053495;28;20048;-79
2020/12/15 06:57:59;;;;;;;4.43;2.83;;;;;;;3.90;83.54;98620.38;5052402;28;20052;-79
2020/12/15 07:00:32;;;;;;;;;;;;;;;3.88;83.69;98616.97;5052999;28;20144;-79
2020/12/15 07:03:01;;;;;;;5.43;2.58;;;;;;;3.68;84.60;98598.31;5052919;28;19921;-79
2020/12/15 07:05:29;;;;;;;3.28;2.50;;;;;;;3.66;84.26;98596.81;5053148;28;20040;-79
2020/12/15 07:07:56;;;;;;;3.90;2.70;;;;;;;3.82;84.91;98618.44;5052675;28;20061;-79
2020/12/15 07:10:25;;;;;;;8.13;3.08;;;;;;;3.76;85.12;98605.59;5052304;28;20045;-78
2020/12/15 07:12:53;;;;;;;4.00;2.90;;;;;;;3.72;85.32;98612.31;5053484;28;20437;-79
2020/12/15 07:15:20;;;;;;;4.35;2.72;;;;;;;3.72;86.04;98631.13;5053381;28;20596;-78
2020/12/15 07:17:49;;;;;;;5.90;2.95;;;;;;;3.73;85.09;98613.97;5052210;28;20056;-79
2020/12/15 07:20:16;;;;;;;6.40;2.40;;;;;;;3.78;85.36;98645.78;5053574;28;20106;-79
2020/12/15 07:22:43;;;;;;;4.43;3.20;;;;;;;3.80;84.66;98647.31;5052502;28;20079;-79
2020/12/15 07:25:11;;;;;;;5.20;3.42;;;;;;;3.70;85.00;98620.53;5053156;28;20052;-78
2020/12/15 07:27:38;;;;;;;6.28;2.88;;;;;;;3.71;84.69;98603.38;5053384;28;20102;-78
2020/12/15 07:30:07;;;;;;;3.70;2.60;;;;;;;3.77;85.02;98634.19;5052536;28;20048;-79
2020/12/15 07:32:36;;;;;;;4.60;3.15;;;;;;;3.73;84.77;98613.97;5046826;28;20549;-78
2020/12/15 07:35:06;;;;;;;6.57;2.88;;;;;;;3.89;84.54;98629.44;5052423;28;20056;-79
2020/12/15 07:37:35;;;;;;;3.55;2.33;;;;;;;3.93;84.42;98627.25;5052669;28;20047;-79
2020/12/15 07:40:04;;;;;;;4.13;2.67;;;;;;;4.18;83.42;98647.97;5052998;28;20044;-78
2020/12/15 07:42:30;;;;;;;5.93;2.73;;;;;;;4.12;84.06;98643.22;5055040;28;20370;-79
2020/12/15 07:44:58;;;;;;;3.97;2.30;;;;;;;4.02;83.27;98629.88;5051999;28;20075;-79
2020/12/15 07:47:26;;;;;;;4.65;2.63;;;;;;;4.07;83.47;98654.44;5052742;28;20048;-78
2020/12/15 07:49:56;;;;;;;4.60;2.38;;;;;;;4.04;83.75;98638.63;5052075;28;20489;-79
2020/12/15 07:52:33;;;;;;;5.43;3.05;;;;;;;4.05;83.88;98634.94;5052737;28;20041;-79
2020/12/15 07:55:01;;;;;;;4.45;2.42;;;;;;;4.17;82.56;98629.28;5053828;28;20060;-79
2020/12/15 07:57:32;;;;;;;5.13;2.50;;;;;;;4.27;82.33;98639.97;5052404;28;20056;-79
2020/12/15 08:00:01;;;;;;;5.85;2.67;;;;;;;4.29;82.22;98628.06;5052139;28;20080;-79
2020/12/15 08:02:28;;;;;;;2.95;1.98;;;;;;;4.20;82.14;98620.91;5051454;28;20056;-78
2020/12/15 08:05:06;;;;;;;5.80;2.72;;;;;;;4.32;82.10;98634.94;5052801;28;20048;-79
2020/12/15 08:07:37;;;;;;;3.38;2.22;;;;;;;4.32;81.83;98633.13;5052035;28;20504;-79
2020/12/15 08:10:03;;;;;;;3.13;2.55;;;;;;;4.38;82.31;98659.41;5052323;28;20041;-79
2020/12/15 08:12:31;;;;;;;4.18;2.63;;;;;;;4.48;83.18;98658.44;5054103;28;20049;-79
2020/12/15 08:14:58;;;;;;;4.43;2.25;;;;;;;4.39;82.53;98644.09;5053349;28;20060;-79
2020/12/15 08:17:25;;;;;;;4.75;2.38;;;;;;;4.54;81.63;98641.66;5051756;28;20052;-78
2020/12/15 08:19:59;;;;;;;5.18;2.50;;;;;;;4.61;81.38;98648.09;5052298;28;20049;-79
2020/12/15 08:22:26;;;;;;;4.82;2.60;;;;;;;4.68;81.52;98648.28;5051760;28;20057;-79
2020/12/15 08:24:56;;;;;;;4.45;2.70;;;;;;;4.67;81.77;98643.94;5052151;28;20057;-79
2020/12/15 08:27:24;;;;;;;3.40;2.40;;;;;;;4.85;81.18;98662.69;5052267;28;20485;-79
2020/12/15 08:29:50;;;;;;;3.10;2.42;;;;;;;4.83;81.78;98656.63;5052253;28;20087;-79
2020/12/15 08:32:26;;;;;;;3.58;2.38;;;;;;;4.88;82.35;98668.59;5052334;28;20041;-79
2020/12/15 08:34:58;;;;;;;6.40;2.88;;;;;;;4.87;82.93;98663.38;5052422;28;20052;-78
2020/12/15 08:37:25;;;;;;;5.40;3.42;;;;;;;4.89;83.72;98664.91;5052481;28;20059;-79
2020/12/15 08:39:53;;;;;;;7.60;2.60;;;;;;;4.97;84.41;98673.03;5052670;28;20369;-79
2020/12/15 08:42:20;;;;;;;5.93;3.08;;;;;;;4.94;83.76;98670.66;5052263;28;20055;-78
2020/12/15 08:44:47;;;;;;;4.18;3.08;;;;;;;4.96;82.83;98674.03;5051943;28;20095;-80
2020/12/15 08:47:16;;;;;;;4.13;2.58;;;;;;;5.06;82.37;98676.59;5052129;28;20048;-79
2020/12/15 08:49:44;;;;;;;5.25;2.90;;;;;;;5.13;82.15;98679.47;5051867;28;20053;-79
2020/12/15 08:52:20;;;;;;;5.10;2.85;;;;;;;5.03;81.36;98665.28;5051783;28;20128;-79
2020/12/15 08:54:47;;;;;;;4.10;2.20;;;;;;;5.17;81.33;98680.84;5051628;28;20473;-79
2020/12/15 08:57:14;;;;;;;4.60;2.53;;;;;;;5.14;82.30;98684.72;5051880;28;20107;-78
2020/12/15 08:59:40;;;;;;;5.60;2.72;;;;;;;5.10;82.20;98683.38;5051487;28;20055;-79
2020/12/15 09:02:08;;;;;;;4.35;2.80;;;;;;;5.06;83.36;98703.56;5051958;28;20052;-78
2020/12/15 09:04:34;;;;;;;13.00;3.38;;;;;;;5.10;82.93;98693.28;5051604;28;20409;-79
2020/12/15 09:07:12;;;;;;;5.72;3.90;;;;;;;5.02;83.91;98687.88;5051690;28;20485;-78
2020/12/15 09:09:39;;;;;;;9.00;5.15;;;;;;;5.07;84.17;98702.56;5051898;28;20431;-79
2020/12/15 09:12:05;;;;;;;10.63;4.30;;;;;;;5.16;84.94;98703.41;5051551;28;20053;-79
2020/12/15 09:14:32;;;;;;;4.40;3.22;;;;;;;4.94;85.50;98691.38;5051073;28;20049;-79
2020/12/15 09:16:58;;;;;;;4.88;2.90;;;;;;;5.17;85.36;98706.97;5050895;28;20057;-78
2020/12/15 09:19:27;;;;;;;4.70;2.30;;;;;;;5.12;84.52;98705.59;5051533;28;20406;-79
2020/12/15 09:21:58;;;;;;;4.45;2.63;;;;;;;5.13;83.96;98690.25;5050524;28;20143;-78
2020/12/15 09:24:26;;;;;;;6.72;2.88;;;;;;;5.27;82.84;98700.44;5051021;28;20120;-79
2020/12/15 09:26:52;;;;;;;6.00;2.45;;;;;;;5.32;81.84;98702.66;5051424;28;20052;-79
2020/12/15 09:29:19;;;;;;;18.58;2.72;;;;;;;5.22;80.72;98677.66;5050904;28;20049;-79
2020/12/15 09:31:53;;;;;;;4.88;2.65;;;;;;;5.55;79.54;98700.19;5051027;28;20060;-79
2020/12/15 09:34:20;;;;;;;3.78;2.35;;;;;;;5.54;80.00;98706.59;5051332;28;20049;-79
2020/12/15 09:36:56;;;;;;;4.18;2.38;;;;;;;5.49;80.30;98704.41;5051121;28;20057;-79
2020/12/15 09:39:23;;;;;;;4.03;2.50;;;;;;;5.56;80.39;98719.94;5051015;28;20053;-79
2020/12/15 09:41:51;;;;;;;4.25;2.50;;;;;;;5.45;80.31;98699.47;5050655;28;20049;-79
2020/12/15 09:44:17;;;;;;;5.35;1.80;;;;;;;5.53;80.30;98722.94;5050813;28;20049;-79
2020/12/15 09:46:43;;;;;;;4.85;2.63;;;;;;;5.57;79.64;98722.47;5050557;28;20053;-79
2020/12/15 09:49:10;;;;;;;7.72;2.40;;;;;;;5.64;77.21;98712.69;5050917;28;20049;-78
2020/12/15 09:51:36;;;;;;;4.78;2.20;;;;;;;5.73;76.93;98701.94;5051039;28;20045;-79
2020/12/15 09:54:02;;;;;;;2.83;2.15;;;;;;;5.65;77.32;98684.72;5051013;28;20049;-79
2020/12/15 09:56:28;;;;;;;2.40;1.80;;;;;;;5.62;77.01;98690.44;5050729;28;20045;-79
2020/12/15 09:58:55;;;;;;;3.05;2.15;;;;;;;5.73;77.85;98700.06;5051090;28;20060;-79
2020/12/15 10:01:22;;;;;;;5.82;2.67;;;;;;;5.74;77.76;98684.75;5050722;28;20053;-79
2020/12/15 10:03:48;;;;;;;3.08;2.10;;;;;;;5.89;77.07;98688.47;5050781;28;20487;-79
2020/12/15 10:06:15;;;;;;;6.85;2.70;;;;;;;5.97;76.41;98671.47;5050392;28;20041;-79
2020/12/15 10:08:41;;;;;;;5.47;2.70;;;;;;;5.98;75.41;98663.22;5050735;28;20132;-79
2020/12/15 10:11:07;;;;;;;3.22;2.78;;;;;;;5.92;76.00;98671.13;5050427;28;20048;-79
2020/12/15 10:13:33;;;;;;;5.10;2.60;;;;;;;5.87;75.99;98663.50;5050765;28;20506;-79
2020/12/15 10:16:00;;;;;;;7.13;3.40;;;;;;;5.76;76.80;98661.97;5050418;28;20090;-79
2020/12/15 10:18:27;;;;;;;4.45;2.88;;;;;;;6.06;77.78;98683.13;5050156;28;20481;-79
2020/12/15 10:20:53;;;;;;;5.93;2.97;;;;;;;6.02;76.50;98679.91;5049879;28;20053;-79
2020/12/15 10:23:19;;;;;;;4.43;3.15;;;;;;;5.95;77.29;98660.00;5050722;28;20515;-79
2020/12/15 10:25:45;;;;;;;6.35;3.10;;;;;;;6.06;77.82;98678.56;5050238;28;20057;-79
2020/12/15 10:28:12;;;;;;;7.40;3.00;;;;;;;5.99;78.18;98670.31;5050699;28;20048;-79
2020/12/15 10:30:38;;;;;;;4.82;3.03;;;;;;;5.93;78.16;98652.06;5050510;28;20433;-79
2020/12/15 10:33:07;;;;;;;5.00;2.97;;;;;;;6.14;79.12;98672.31;5053313;28;20052;-79
2020/12/15 10:35:33;;;;;;;4.47;2.88;;;;;;;6.27;79.48;98658.31;5054034;28;20041;-79
2020/12/15 10:37:59;;;;;;;2.70;1.92;;;;;;;6.40;78.71;98671.28;5054169;28;20056;-78
2020/12/15 10:40:26;;;;;;;2.75;2.00;;;;;;;6.37;78.78;98676.03;5054434;28;20060;-79
2020/12/15 10:42:52;;;;;;;3.30;2.22;;;;;;;6.42;78.79;98675.53;5054371;28;20065;-79
2020/12/15 10:45:18;;;;;;;4.57;2.13;;;;;;;6.42;78.92;98663.88;5053587;28;20056;-79
2020/12/15 10:47:45;;;;;;;7.40;4.97;;;;;;;6.41;79.57;98670.28;5054193;28;20060;-79
2020/12/15 10:50:14;;;;;;;11.40;8.65;;;;;;;6.34;80.15;98652.06;5053585;28;20505;-79
2020/12/15 10:52:40;;;;;;;6.20;4.47;;;;;;;6.59;80.54;98680.91;5053994;28;20049;-79
2020/12/15 10:55:06;;;;;;;6.22;3.20;;;;;;;6.57;81.32;98674.84;5053461;28;20045;-79
2020/12/15 10:57:32;;;;;;;4.68;2.30;;;;;;;6.54;80.63;98670.63;5053854;28;20037;-79
2020/12/15 10:59:59;;;;;;;4.85;2.65;;;;;;;6.52;80.47;98678.06;5053617;28;20045;-79
2020/12/15 11:02:25;;;;;;;6.45;3.03;;;;;;;6.51;81.18;98677.19;5053396;28;20052;-79
2020/12/15 11:04:51;;;;;;;6.72;3.30;;;;;;;6.50;81.41;98667.44;5053952;28;20386;-79
2020/12/15 11:07:19;;;;;;;6.57;3.47;;;;;;;6.48;80.13;98676.69;5053656;28;20049;-79
2020/12/15 11:09:45;;;;;;;8.93;3.28;;;;;;;6.49;81.25;98681.94;5053750;28;20060;-79
2020/12/15 11:12:11;;;;;;;5.18;3.00;;;;;;;6.56;81.59;98682.06;5053143;28;20485;-79
2020/12/15 11:14:37;;;;;;;5.32;3.28;;;;;;;6.48;81.77;98691.03;5053181;28;20512;-79
2020/12/15 11:17:03;;;;;;;7.43;3.85;;;;;;;6.45;81.67;98679.75;5052715;28;20045;-79
2020/12/15 11:19:30;;;;;;;8.80;3.70;;;;;;;6.57;81.67;98694.56;5053351;28;20515;-79
2020/12/15 11:21:56;;;;;;;8.82;4.13;;;;;;;6.44;81.65;98661.84;5053057;28;20056;-79
2020/12/15 11:24:23;;;;;;;10.18;3.33;;;;;;;6.55;81.10;98681.25;5053039;28;20084;-79
2020/12/15 11:26:50;;;;;;;9.40;3.60;;;;;;;6.68;81.63;98691.50;5054146;28;20045;-79
2020/12/15 11:29:16;;;;;;;9.98;3.95;;;;;;;6.58;81.10;98688.16;5052985;28;20432;-79
2020/12/15 11:31:42;;;;;;;6.20;3.50;;;;;;;6.56;82.88;98690.19;5053534;28;20134;-79
2020/12/15 11:34:09;;;;;;;7.57;3.47;;;;;;;6.56;83.01;98682.06;5052787;28;20072;-79
2020/12/15 11:36:35;;;;;;;6.38;3.55;;;;;;;6.62;82.77;98680.56;5052708;28;20057;-79
2020/12/15 11:39:01;;;;;;;6.20;3.22;;;;;;;6.53;82.35;98682.41;5053449;28;20057;-79
2020/12/15 11:41:29;;;;;;;8.80;3.53;;;;;;;6.59;82.53;98683.59;5052655;28;20504;-79
2020/12/15 11:43:56;;;;;;;5.60;3.80;;;;;;;6.48;81.61;98671.31;5052580;28;20257;-79